DAL2278 KMSP-KFAR
Flight info
| Callsign | DAL2278 |
|---|---|
| Flight time | N/A |
| Altitude | 24000 |
| Route | FCM357010 KFAR |
| Aircraft | B738/M-SDE2E3FGHIRWXY/LB1 |
Departure
| Time | N/A |
|---|---|
| Airport | Minneapolis–Saint Paul International Airport / Wold–Chamberlain Field (KMSP) |
Arrival
| Time | 2026-05-05 04:11 |
|---|---|
| Airport | Hector International Airport (KFAR) |
| Time | Latitude | Longitude | Altitude | Speed | Heading |
|---|---|---|---|---|---|
| 2026-05-05 04:09 | 46.85693 | -96.81702 | 2021 ft | 142 kts | 358° |
| 2026-05-05 04:10 | 46.86682 | -96.81690 | 1790 ft | 142 kts | 359° |
| 2026-05-05 04:10 | 46.87682 | -96.81681 | 1591 ft | 144 kts | 359° |
| 2026-05-05 04:10 | 46.88691 | -96.81683 | 1318 ft | 146 kts | 0° |
| 2026-05-05 04:10 | 46.89702 | -96.81688 | 1148 ft | 142 kts | 1° |
| 2026-05-05 04:11 | 46.90674 | -96.81652 | 997 ft | 140 kts | 2° |
| 2026-05-05 04:11 | 46.91618 | -96.81633 | 906 ft | 124 kts | 1° |
| 2026-05-05 04:11 | 46.92261 | -96.81623 | 908 ft | 52 kts | 1° |
| 2026-05-05 04:11 | 46.92468 | -96.81631 | 914 ft | 12 kts | 335° |
| 2026-05-05 04:12 | 46.92499 | -96.81727 | 909 ft | 11 kts | 273° |
| 2026-05-05 04:12 | 46.92498 | -96.81839 | 907 ft | 11 kts | 266° |
| 2026-05-05 04:12 | 46.92489 | -96.81930 | 907 ft | 7 kts | 234° |
| 2026-05-05 04:12 | 46.92442 | -96.81948 | 907 ft | 8 kts | 180° |
| 2026-05-05 04:13 | 46.92382 | -96.81947 | 907 ft | 10 kts | 180° |
| 2026-05-05 04:13 | 46.92302 | -96.81947 | 907 ft | 15 kts | 180° |
| 2026-05-05 04:13 | 46.92199 | -96.81953 | 907 ft | 5 kts | 179° |
| 2026-05-05 04:13 | 46.92180 | -96.81952 | 907 ft | 3 kts | 179° |
| 2026-05-05 04:14 | 46.92152 | -96.81951 | 907 ft | 4 kts | 179° |
| 2026-05-05 04:14 | 46.92148 | -96.81951 | 907 ft | 1 kts | 179° |
| 2026-05-05 04:14 | 46.92125 | -96.81954 | 907 ft | 7 kts | 197° |
| 2026-05-05 04:14 | 46.92105 | -96.82037 | 907 ft | 12 kts | 270° |
| 2026-05-05 04:15 | 46.92107 | -96.82159 | 907 ft | 6 kts | 272° |
| 2026-05-05 04:15 | 46.92108 | -96.82191 | 907 ft | 0 kts | 272° |
| 2026-05-05 04:15 | 46.92108 | -96.82216 | 907 ft | 5 kts | 272° |
| 2026-05-05 04:15 | 46.92110 | -96.82272 | 907 ft | 0 kts | 272° |
| 2026-05-05 04:16 | 46.92110 | -96.82273 | 907 ft | 0 kts | 272° |
| 2026-05-05 04:19 | 46.92109 | -96.82279 | 907 ft | 2 kts | 260° |
| 2026-05-05 04:19 | 46.92096 | -96.82298 | 909 ft | 4 kts | 217° |
| 2026-05-05 04:19 | 46.92074 | -96.82321 | 907 ft | 2 kts | 212° |
| 2026-05-05 04:19 | 46.92059 | -96.82335 | 907 ft | 2 kts | 214° |
| 2026-05-05 04:20 | 46.92049 | -96.82345 | 907 ft | 2 kts | 215° |
| 2026-05-05 04:20 | 46.92048 | -96.82346 | 907 ft | 0 kts | 215° |